Al Kharsaah — C6VG3 — position and weather

sailwx.info

Track history (hours):
 
Tides and Currents Weather Stations Pressure Air Temp Water Temp Dewpoint Dewpoint Depression Visibility Wind Speed Wind Dir Waves Ship Positions

Al Kharsaah

Last reported at 2015-May-02 18:09 UTC. Time now 2015-May-04 06:00 UTC.
Position N 25°02' E 055°04'.

Length 315 m; draft 12.1 m.

Type: Ship (hazmat cat D). MMSI: 309333000.

Date/timePositionNaut miles runAvg speedWind from/ knotsBaromVisibWave heightAir tempDewpointWater temp
2015-May-02 18:09N 25°02' E 055°04'0 0.0
2015-May-02 17:16N 25°02' E 055°04'0 0.0
2015-May-02 14:22N 25°02' E 055°04'0 0.0
2015-May-02 13:33N 25°02' E 055°04'0 0.0
2015-May-02 12:33N 25°02' E 055°04'7 0.5
2015-May-01 20:24N 25°06' E 054°57'6 7.0
2015-May-01 19:34N 25°11' E 054°54'7 6.9
2015-May-01 18:34N 25°18' E 054°53'10 9.8
2015-May-01 17:34N 25°28' E 054°51'10 9.5
2015-May-01 16:33N 25°37' E 054°50'23 9.6
2015-May-01 14:09N 25°60' E 054°47'1110.3
2015-May-01 13:06N 26°02' E 054°36'611.1
2015-May-01 12:33N 26°03' E 054°29'1110.7
2015-May-01 11:34N 26°03' E 054°17'33 9.7
2015-May-01 08:12N 26°03' E 053°41'710.5
2015-May-01 07:33N 26°03' E 053°33'  
2015-Apr-28 19:33N 26°34' E 056°12'1615.0
2015-Apr-28 18:31N 26°38' E 056°29'  
Track history (hours):
 
Tides and Currents Weather Stations Pressure Air Temp Water Temp Dewpoint Dewpoint Depression Visibility Wind Speed Wind Dir Waves Ship Positions

Al Kharsaah

Last reported at 2015-May-02 18:09 UTC. Time now 2015-May-04 06:00 UTC.
Position N 25°02' E 055°04'.

Length 315 m; draft 12.1 m.

Type: Ship (hazmat cat D). MMSI: 309333000.

Date/timePositionNaut miles runAvg speedWind from/ knotsBaromVisibWave heightAir tempDewpointWater temp
2015-May-02 18:09N 25°02' E 055°04'0 0.0
2015-May-02 17:16N 25°02' E 055°04'0 0.0
2015-May-02 14:22N 25°02' E 055°04'0 0.0
2015-May-02 13:33N 25°02' E 055°04'0 0.0
2015-May-02 12:33N 25°02' E 055°04'7 0.5
2015-May-01 20:24N 25°06' E 054°57'6 7.0
2015-May-01 19:34N 25°11' E 054°54'7 6.9
2015-May-01 18:34N 25°18' E 054°53'10 9.8
2015-May-01 17:34N 25°28' E 054°51'10 9.5
2015-May-01 16:33N 25°37' E 054°50'23 9.6
2015-May-01 14:09N 25°60' E 054°47'1110.3
2015-May-01 13:06N 26°02' E 054°36'611.1
2015-May-01 12:33N 26°03' E 054°29'1110.7
2015-May-01 11:34N 26°03' E 054°17'33 9.7
2015-May-01 08:12N 26°03' E 053°41'710.5
2015-May-01 07:33N 26°03' E 053°33'  
2015-Apr-28 19:33N 26°34' E 056°12'1615.0
2015-Apr-28 18:31N 26°38' E 056°29'  

Dump ship's entire track history